createdAt,value
2022-10-08T00:01:21.174Z,18.20
2022-10-08T00:03:52.357Z,18.70
2022-10-08T00:06:28.228Z,18.10
2022-10-08T00:08:59.509Z,20.90
2022-10-08T00:11:33.525Z,19.90
2022-10-08T00:14:04.374Z,19.30
2022-10-08T00:16:40.946Z,20.20
2022-10-08T00:19:12.773Z,18.90
2022-10-08T00:21:43.815Z,18.40
2022-10-08T00:24:18.117Z,22.50
2022-10-08T00:26:46.373Z,19.60
2022-10-08T00:29:16.836Z,19.70
2022-10-08T00:31:46.665Z,18.50
2022-10-08T00:34:20.123Z,22.70
2022-10-08T00:36:51.288Z,20.30
2022-10-08T00:39:21.261Z,21.30
2022-10-08T00:41:52.430Z,19.30
2022-10-08T00:44:54.284Z,21.00
2022-10-08T00:47:40.910Z,20.90
2022-10-08T00:50:31.470Z,20.70
2022-10-08T00:53:07.668Z,18.80
2022-10-08T00:55:42.507Z,18.20
2022-10-08T00:58:20.557Z,20.50
2022-10-08T01:00:48.489Z,18.60
2022-10-08T01:03:16.061Z,22.60
2022-10-08T01:06:00.541Z,19.60
2022-10-08T01:08:33.916Z,18.80
2022-10-08T01:11:20.132Z,19.70
2022-10-08T01:14:21.023Z,20.10
2022-10-08T01:17:16.866Z,19.90
2022-10-08T01:19:59.394Z,19.10
2022-10-08T01:22:32.902Z,21.90
2022-10-08T01:25:31.399Z,26.50
2022-10-08T01:28:28.883Z,18.10
2022-10-08T01:31:04.773Z,18.90
2022-10-08T01:34:12.752Z,19.90
2022-10-08T01:36:48.120Z,18.80
2022-10-08T01:39:19.363Z,19.80
2022-10-08T01:41:53.942Z,19.50
2022-10-08T01:44:30.157Z,18.50
2022-10-08T01:47:00.231Z,21.20
2022-10-08T01:49:38.572Z,17.80
2022-10-08T01:52:10.962Z,18.40
2022-10-08T01:54:40.692Z,20.30
2022-10-08T01:57:10.838Z,21.70
2022-10-08T01:59:51.565Z,19.20
2022-10-08T02:02:22.295Z,19.70
2022-10-08T02:04:53.454Z,18.60
2022-10-08T02:07:24.878Z,17.90
2022-10-08T02:10:10.860Z,20.00
2022-10-08T02:12:42.317Z,18.50
2022-10-08T02:15:23.321Z,17.80
2022-10-08T02:18:18.339Z,18.70
2022-10-08T02:21:04.092Z,16.70
2022-10-08T02:23:49.063Z,20.20
2022-10-08T02:26:31.786Z,20.00
2022-10-08T02:29:04.847Z,20.80
2022-10-08T02:31:47.607Z,20.20
2022-10-08T02:34:18.167Z,20.40
2022-10-08T02:36:53.035Z,19.10
2022-10-08T02:39:23.894Z,21.40
2022-10-08T02:41:54.915Z,18.80
2022-10-08T02:44:47.212Z,17.30
2022-10-08T02:47:20.419Z,16.80
2022-10-08T02:49:57.810Z,19.50
2022-10-08T02:52:28.266Z,18.80
2022-10-08T02:55:00.440Z,20.40
2022-10-08T02:57:34.238Z,18.50
2022-10-08T03:00:03.322Z,18.00
2022-10-08T03:02:48.259Z,19.50
2022-10-08T03:05:19.235Z,18.10
2022-10-08T03:07:50.497Z,23.10
2022-10-08T03:10:19.879Z,20.40
2022-10-08T03:12:47.803Z,18.70
2022-10-08T03:15:15.640Z,20.20
2022-10-08T03:17:47.404Z,18.40
2022-10-08T03:20:15.143Z,19.50
2022-10-08T03:22:43.232Z,19.60
2022-10-08T03:25:10.858Z,18.90
2022-10-08T03:27:38.472Z,20.40
2022-10-08T03:30:06.639Z,20.80
2022-10-08T03:32:34.129Z,19.00
2022-10-08T03:35:01.616Z,21.00
2022-10-08T03:37:30.190Z,19.60
2022-10-08T03:39:57.706Z,19.60
2022-10-08T03:42:25.260Z,18.60
2022-10-08T03:44:53.660Z,21.60
2022-10-08T03:47:21.142Z,21.50
2022-10-08T03:49:48.604Z,21.20
2022-10-08T03:52:16.090Z,20.40
2022-10-08T03:54:43.599Z,19.30
2022-10-08T03:57:11.054Z,20.10
2022-10-08T03:59:38.571Z,21.10
2022-10-08T04:02:06.213Z,21.50
2022-10-08T04:04:33.793Z,22.50
2022-10-08T04:07:01.266Z,21.00
2022-10-08T04:09:28.802Z,17.70
2022-10-08T04:11:56.339Z,22.30
2022-10-08T04:14:23.936Z,22.20
2022-10-08T04:16:51.439Z,20.70
2022-10-08T04:19:19.172Z,19.60
2022-10-08T04:21:46.821Z,23.00
2022-10-08T04:24:14.310Z,22.80
2022-10-08T04:26:41.814Z,21.30
2022-10-08T04:29:12.372Z,21.90
2022-10-08T04:31:40.437Z,21.80
2022-10-08T04:34:10.419Z,19.10
2022-10-08T04:36:39.240Z,21.00
2022-10-08T04:39:06.949Z,22.50
2022-10-08T04:41:34.463Z,21.60
2022-10-08T04:44:02.035Z,23.10
2022-10-08T04:46:29.758Z,20.10
2022-10-08T04:48:57.431Z,20.30
2022-10-08T04:51:26.349Z,21.50
2022-10-08T04:53:55.786Z,20.30
2022-10-08T04:56:26.396Z,22.30
2022-10-08T04:58:57.269Z,25.10
2022-10-08T05:01:26.055Z,39.30
2022-10-08T05:03:56.090Z,30.30
2022-10-08T05:06:28.120Z,21.90
2022-10-08T05:08:56.380Z,27.60
2022-10-08T05:11:26.670Z,21.60
2022-10-08T05:13:55.931Z,23.10
2022-10-08T05:16:24.890Z,26.40
2022-10-08T05:18:53.010Z,25.40
2022-10-08T05:21:24.030Z,25.00
2022-10-08T05:24:00.398Z,27.50
2022-10-08T05:26:57.952Z,26.10
2022-10-08T05:29:19.502Z,34.20
2022-10-08T05:31:47.061Z,30.10
2022-10-08T05:34:15.429Z,29.70
2022-10-08T05:36:44.964Z,33.10
2022-10-08T05:39:12.488Z,25.90
2022-10-08T05:41:41.200Z,25.50
2022-10-08T05:44:11.085Z,89.20
2022-10-08T05:46:39.492Z,43.50
2022-10-08T05:49:18.822Z,26.70
2022-10-08T05:51:50.431Z,31.70
2022-10-08T05:54:18.818Z,59.60
2022-10-08T05:56:46.597Z,40.70
2022-10-08T05:59:20.925Z,25.80
2022-10-08T06:01:49.316Z,31.10
2022-10-08T06:04:18.520Z,31.60
2022-10-08T06:06:47.030Z,26.70
2022-10-08T06:09:18.275Z,33.40
2022-10-08T06:11:47.202Z,31.70
2022-10-08T06:14:24.319Z,29.60
2022-10-08T06:16:51.804Z,31.70
2022-10-08T06:19:19.439Z,26.50
2022-10-08T06:21:47.028Z,29.40
2022-10-08T06:24:14.590Z,30.40
2022-10-08T06:26:44.033Z,34.50
2022-10-08T06:29:15.884Z,32.10
2022-10-08T06:31:44.544Z,28.30
2022-10-08T06:34:12.201Z,50.20
2022-10-08T06:36:40.152Z,57.30
2022-10-08T06:39:12.095Z,44.30
2022-10-08T06:41:39.714Z,43.60
2022-10-08T06:44:10.538Z,50.70
2022-10-08T06:46:38.171Z,40.00
2022-10-08T06:49:06.267Z,37.00
2022-10-08T06:51:34.351Z,38.40
2022-10-08T06:54:07.472Z,29.40
2022-10-08T06:56:39.065Z,29.80
2022-10-08T06:59:07.751Z,37.90
2022-10-08T07:01:36.155Z,37.70
2022-10-08T07:04:05.472Z,31.10
2022-10-08T07:06:33.054Z,28.30
2022-10-08T07:09:01.929Z,26.50
2022-10-08T07:11:32.390Z,27.20
2022-10-08T07:14:00.298Z,27.70
2022-10-08T07:16:29.335Z,24.90
2022-10-08T07:18:58.882Z,27.70
2022-10-08T07:21:28.081Z,28.70
2022-10-08T07:23:56.515Z,32.60
2022-10-08T07:26:26.804Z,27.60
2022-10-08T07:29:03.634Z,27.90
2022-10-08T07:31:35.464Z,30.30
2022-10-08T07:34:05.718Z,27.20
2022-10-08T07:36:34.670Z,28.40
2022-10-08T07:39:07.132Z,29.00
2022-10-08T07:41:35.269Z,28.70
2022-10-08T07:44:04.296Z,25.20
2022-10-08T07:46:34.856Z,24.00
2022-10-08T07:49:04.512Z,28.10
2022-10-08T07:51:34.459Z,24.50
2022-10-08T07:54:04.508Z,21.30
2022-10-08T07:56:34.032Z,24.90
2022-10-08T07:59:03.307Z,19.50
2022-10-08T08:01:31.682Z,19.10
2022-10-08T08:04:05.120Z,25.40
2022-10-08T08:06:37.710Z,19.20
2022-10-08T08:09:05.391Z,19.40
2022-10-08T08:11:32.971Z,21.30
2022-10-08T08:14:00.677Z,18.50
2022-10-08T08:16:29.641Z,20.30
2022-10-08T08:18:59.925Z,17.10
2022-10-08T08:21:30.948Z,18.50
2022-10-08T08:24:06.307Z,19.80
2022-10-08T08:26:36.684Z,17.40
2022-10-08T08:29:16.645Z,18.00
2022-10-08T08:31:46.922Z,17.90
2022-10-08T08:34:20.897Z,18.50
2022-10-08T08:36:50.123Z,22.50
2022-10-08T08:39:26.546Z,17.30
2022-10-08T08:42:04.345Z,18.70
2022-10-08T08:44:41.048Z,34.70
2022-10-08T08:47:40.494Z,18.30
2022-10-08T08:50:32.413Z,21.60
2022-10-08T08:53:00.089Z,20.90
2022-10-08T08:55:45.857Z,15.40
2022-10-08T08:58:34.872Z,14.00
2022-10-08T09:01:14.191Z,19.00
2022-10-08T09:03:52.371Z,17.90
2022-10-08T09:06:23.211Z,19.20
2022-10-08T09:08:56.420Z,21.00
2022-10-08T09:11:25.225Z,19.50
2022-10-08T09:14:12.320Z,17.60
2022-10-08T09:16:40.665Z,14.50
2022-10-08T09:19:09.728Z,31.10
2022-10-08T09:21:37.300Z,15.90
2022-10-08T09:24:05.053Z,17.40
2022-10-08T09:26:36.253Z,21.10
2022-10-08T09:29:05.636Z,14.90
2022-10-08T09:31:40.193Z,16.80
2022-10-08T09:34:10.682Z,17.60
2022-10-08T09:36:42.871Z,14.20
2022-10-08T09:39:37.374Z,16.70
2022-10-08T09:42:04.895Z,14.50
2022-10-08T09:44:52.836Z,12.40
2022-10-08T09:47:22.729Z,10.60
2022-10-08T09:50:18.935Z,13.30
2022-10-08T09:52:49.910Z,16.50
2022-10-08T09:55:24.677Z,14.50
2022-10-08T09:57:57.629Z,11.40
2022-10-08T10:00:32.146Z,13.70
2022-10-08T10:03:00.336Z,15.30
2022-10-08T10:05:31.102Z,13.90
2022-10-08T10:07:58.776Z,13.70
2022-10-08T10:10:30.397Z,20.30
2022-10-08T10:13:09.534Z,12.50
2022-10-08T10:15:57.255Z,18.80
2022-10-08T10:18:52.536Z,13.40
2022-10-08T10:21:30.060Z,13.80
2022-10-08T10:24:19.519Z,15.10
2022-10-08T10:26:50.988Z,12.40
2022-10-08T10:29:22.475Z,13.90
2022-10-08T10:32:13.461Z,15.80
2022-10-08T10:34:45.280Z,12.40
2022-10-08T10:37:21.247Z,11.50
2022-10-08T10:40:00.563Z,13.80
2022-10-08T10:42:36.697Z,15.80
2022-10-08T10:45:17.032Z,12.80
2022-10-08T10:47:44.631Z,12.60
2022-10-08T10:50:13.938Z,11.80
2022-10-08T10:53:13.304Z,12.30
2022-10-08T10:56:02.004Z,13.70
2022-10-08T10:58:29.887Z,13.50
2022-10-08T11:01:10.362Z,13.40
2022-10-08T11:03:53.063Z,14.50
2022-10-08T11:06:29.788Z,15.20
2022-10-08T11:09:14.363Z,12.30
2022-10-08T11:11:49.680Z,13.30
2022-10-08T11:14:44.549Z,10.80
2022-10-08T11:17:44.129Z,17.60
2022-10-08T11:20:39.742Z,11.40
2022-10-08T11:23:20.398Z,12.80
2022-10-08T11:29:06.954Z,13.70
2022-10-08T11:31:48.332Z,9.30
2022-10-08T11:34:31.809Z,12.10
2022-10-08T11:37:16.598Z,15.50
2022-10-08T11:39:49.603Z,10.10
2022-10-08T11:42:51.571Z,12.70
2022-10-08T11:45:30.266Z,13.10
2022-10-08T11:48:21.901Z,9.80
2022-10-08T11:50:50.195Z,12.30
2022-10-08T11:53:21.301Z,12.50
2022-10-08T11:55:58.004Z,18.80
2022-10-08T11:58:30.387Z,21.70
2022-10-08T12:01:05.188Z,18.90
2022-10-08T12:03:37.602Z,15.80
2022-10-08T12:06:26.760Z,36.20
2022-10-08T12:08:59.951Z,22.90
2022-10-08T12:11:39.597Z,20.60
2022-10-08T12:14:14.439Z,20.70
2022-10-08T12:16:48.383Z,14.30
2022-10-08T12:19:35.002Z,13.50
2022-10-08T12:22:24.976Z,18.90
2022-10-08T12:24:56.834Z,17.20
2022-10-08T12:27:30.833Z,22.70
2022-10-08T12:30:17.088Z,25.60
2022-10-08T12:32:44.873Z,15.60
2022-10-08T12:35:34.539Z,25.30
2022-10-08T12:38:26.849Z,45.60
2022-10-08T12:41:11.188Z,33.30
2022-10-08T12:44:02.901Z,17.10
2022-10-08T12:46:50.493Z,15.70
2022-10-08T12:49:29.133Z,16.20
2022-10-08T12:52:14.608Z,16.50
2022-10-08T12:54:59.645Z,13.60
2022-10-08T12:57:31.245Z,16.80
2022-10-08T13:00:00.718Z,18.40
2022-10-08T13:02:39.374Z,19.50
2022-10-08T13:05:25.756Z,17.60
2022-10-08T13:07:54.003Z,17.50
2022-10-08T13:10:28.266Z,22.30
2022-10-08T13:13:05.083Z,15.00
2022-10-08T13:15:34.914Z,20.00
2022-10-08T13:18:22.242Z,21.20
2022-10-08T13:20:57.630Z,37.90
2022-10-08T13:23:45.561Z,24.40
2022-10-08T13:26:36.334Z,25.30
2022-10-08T13:29:27.487Z,15.60
2022-10-08T13:32:10.989Z,14.80
2022-10-08T13:34:55.541Z,16.10
2022-10-08T13:37:23.037Z,15.00
2022-10-08T13:39:55.078Z,35.20
2022-10-08T13:42:26.737Z,25.30
2022-10-08T13:44:54.465Z,27.80
2022-10-08T13:47:23.079Z,21.00
2022-10-08T13:49:50.731Z,22.40
2022-10-08T13:52:25.018Z,20.70
2022-10-08T13:54:59.501Z,22.90
2022-10-08T13:57:27.605Z,14.90
2022-10-08T13:59:55.331Z,23.10
2022-10-08T14:02:22.964Z,24.40
2022-10-08T14:04:51.570Z,25.50
2022-10-08T14:07:25.607Z,18.20
2022-10-08T14:09:55.067Z,19.60
2022-10-08T14:12:30.233Z,15.70
2022-10-08T14:14:59.213Z,19.00
2022-10-08T14:17:26.947Z,17.40
2022-10-08T14:19:55.668Z,22.50
2022-10-08T14:22:23.376Z,21.70
2022-10-08T14:24:51.802Z,21.80
2022-10-08T14:27:19.395Z,28.80
2022-10-08T14:29:47.010Z,30.50
2022-10-08T14:32:14.549Z,23.00
2022-10-08T14:34:42.065Z,24.90
2022-10-08T14:37:10.557Z,25.20
2022-10-08T14:39:38.160Z,70.90
2022-10-08T14:42:05.701Z,37.30
2022-10-08T14:44:33.251Z,38.40
2022-10-08T14:47:00.922Z,28.80
2022-10-08T14:49:28.885Z,20.20
2022-10-08T14:51:56.880Z,39.10
2022-10-08T14:54:25.884Z,21.60
2022-10-08T14:56:53.605Z,25.10
2022-10-08T14:59:21.978Z,25.10
2022-10-08T15:01:49.492Z,21.40
2022-10-08T15:04:17.411Z,21.80
2022-10-08T15:06:45.111Z,19.50
2022-10-08T15:09:13.643Z,19.00
2022-10-08T15:11:41.190Z,22.50
2022-10-08T15:14:09.617Z,27.90
2022-10-08T15:16:37.221Z,20.00
2022-10-08T15:19:07.420Z,20.00
2022-10-08T15:21:35.296Z,22.50
2022-10-08T15:24:02.879Z,19.70
2022-10-08T15:26:30.452Z,24.90
2022-10-08T15:28:58.147Z,22.80
2022-10-08T15:31:25.705Z,17.60
2022-10-08T15:33:56.030Z,19.10
2022-10-08T15:36:32.298Z,20.60
2022-10-08T15:39:18.840Z,33.20
2022-10-08T15:41:49.526Z,30.90
2022-10-08T15:44:25.557Z,82.70
2022-10-08T15:47:06.759Z,38.70
2022-10-08T15:49:38.933Z,23.60
2022-10-08T15:52:09.294Z,20.50
2022-10-08T15:54:38.601Z,17.20
2022-10-08T15:57:07.041Z,20.10
2022-10-08T15:59:35.099Z,68.60
2022-10-08T16:02:03.472Z,26.90
2022-10-08T16:04:31.302Z,18.70
2022-10-08T16:06:59.082Z,14.40
2022-10-08T16:09:26.690Z,20.90
2022-10-08T16:11:54.272Z,19.70
2022-10-08T16:14:24.761Z,20.90
2022-10-08T16:16:52.675Z,25.80
2022-10-08T16:19:22.676Z,23.00
2022-10-08T16:21:53.770Z,24.40
2022-10-08T16:24:21.722Z,32.60
2022-10-08T16:26:49.622Z,18.00
2022-10-08T16:29:18.100Z,17.20
2022-10-08T16:31:46.896Z,20.80
2022-10-08T16:34:17.604Z,17.40
2022-10-08T16:36:47.918Z,39.20
2022-10-08T16:39:18.560Z,45.60
2022-10-08T16:41:47.195Z,26.30
2022-10-08T16:44:17.554Z,20.90
2022-10-08T16:46:51.245Z,17.30
2022-10-08T16:49:25.404Z,18.40
2022-10-08T16:51:58.362Z,15.60
2022-10-08T16:54:27.014Z,15.90
2022-10-08T16:56:54.739Z,20.60
2022-10-08T16:59:25.251Z,21.00
2022-10-08T17:01:56.287Z,20.20
2022-10-08T17:04:26.437Z,36.30
2022-10-08T17:06:53.966Z,32.50
2022-10-08T17:09:21.676Z,37.90
2022-10-08T17:11:49.658Z,41.70
2022-10-08T17:14:17.249Z,26.00
2022-10-08T17:16:45.790Z,32.00
2022-10-08T17:19:13.739Z,18.80
2022-10-08T17:21:41.581Z,26.10
2022-10-08T17:24:12.612Z,33.90
2022-10-08T17:26:41.948Z,29.60
2022-10-08T17:29:11.435Z,34.10
2022-10-08T17:31:39.658Z,49.10
2022-10-08T17:34:08.548Z,25.20
2022-10-08T17:36:38.730Z,31.30
2022-10-08T17:39:08.974Z,32.30
2022-10-08T17:41:40.371Z,28.60
2022-10-08T17:44:09.569Z,23.70
2022-10-08T17:46:45.408Z,40.80
2022-10-08T17:49:18.701Z,40.00
2022-10-08T17:51:47.302Z,49.00
2022-10-08T17:54:22.292Z,32.90
2022-10-08T17:56:49.848Z,27.90
2022-10-08T17:59:19.575Z,25.00
2022-10-08T18:01:47.331Z,35.40
2022-10-08T18:04:16.987Z,41.00
2022-10-08T18:06:46.785Z,24.80
2022-10-08T18:09:20.606Z,23.20
2022-10-08T18:11:53.394Z,27.80
2022-10-08T18:14:22.415Z,25.80
2022-10-08T18:16:50.420Z,26.00
2022-10-08T18:19:18.462Z,36.00
2022-10-08T18:21:46.289Z,30.30
2022-10-08T18:24:14.935Z,25.40
2022-10-08T18:26:42.482Z,45.60
2022-10-08T18:29:12.742Z,23.80
2022-10-08T18:31:42.027Z,28.20
2022-10-08T18:34:13.395Z,25.40
2022-10-08T18:36:41.452Z,28.10
2022-10-08T18:39:15.022Z,30.90
2022-10-08T18:41:45.936Z,26.60
2022-10-08T18:44:16.867Z,28.80
2022-10-08T18:46:44.668Z,31.30
2022-10-08T18:49:14.652Z,25.70
2022-10-08T18:51:42.518Z,31.40
2022-10-08T18:54:11.364Z,22.20
2022-10-08T18:56:40.698Z,22.20
2022-10-08T18:59:12.885Z,29.10
2022-10-08T19:01:42.434Z,36.00
2022-10-08T19:04:16.093Z,23.20
2022-10-08T19:06:45.739Z,22.50
2022-10-08T19:09:13.548Z,16.60
2022-10-08T19:11:45.370Z,20.60
2022-10-08T19:14:15.762Z,25.80
2022-10-08T19:16:44.462Z,20.30
2022-10-08T19:19:18.152Z,22.70
2022-10-08T19:21:46.631Z,21.10
2022-10-08T19:24:17.315Z,21.00
2022-10-08T19:26:46.959Z,15.80
2022-10-08T19:29:17.439Z,15.70
2022-10-08T19:31:49.853Z,17.10
2022-10-08T19:34:23.176Z,14.90
2022-10-08T19:36:51.005Z,21.20
2022-10-08T19:39:30.839Z,19.10
2022-10-08T19:41:58.490Z,15.00
2022-10-08T19:44:26.009Z,14.30
2022-10-08T19:46:53.647Z,25.00
2022-10-08T19:49:22.700Z,16.40
2022-10-08T19:51:50.583Z,36.10
2022-10-08T19:54:18.453Z,13.90
2022-10-08T19:56:46.275Z,14.10
2022-10-08T19:59:14.582Z,12.90
2022-10-08T20:01:42.731Z,11.20
2022-10-08T20:04:11.749Z,13.40
2022-10-08T20:06:41.388Z,14.80
2022-10-08T20:09:12.135Z,9.60
2022-10-08T20:11:42.192Z,14.70
2022-10-08T20:14:11.815Z,14.40
2022-10-08T20:16:41.932Z,14.00
2022-10-08T20:19:20.944Z,12.50
2022-10-08T20:21:50.590Z,13.50
2022-10-08T20:24:18.846Z,10.70
2022-10-08T20:26:48.868Z,12.20
2022-10-08T20:29:19.677Z,13.20
2022-10-08T20:31:54.952Z,14.20
2022-10-08T20:34:27.091Z,12.60
2022-10-08T20:36:54.739Z,11.10
2022-10-08T20:39:22.900Z,14.20
2022-10-08T20:41:51.611Z,13.40
2022-10-08T20:44:19.837Z,7.70
2022-10-08T20:46:49.469Z,10.90
2022-10-08T20:49:19.623Z,9.90
2022-10-08T20:51:47.194Z,10.00
2022-10-08T20:54:16.189Z,9.00
2022-10-08T20:56:44.538Z,12.20
2022-10-08T20:59:16.988Z,12.60
2022-10-08T21:01:45.051Z,10.70
2022-10-08T21:04:12.770Z,13.40
2022-10-08T21:06:43.640Z,10.10
2022-10-08T21:09:13.072Z,10.80
2022-10-08T21:11:41.138Z,10.10
2022-10-08T21:14:10.480Z,10.80
2022-10-08T21:16:39.848Z,13.10
2022-10-08T21:19:11.761Z,13.10
2022-10-08T21:21:41.172Z,12.40
2022-10-08T21:24:09.534Z,12.50
2022-10-08T21:26:39.899Z,13.20
2022-10-08T21:29:10.866Z,16.30
2022-10-08T21:31:40.072Z,12.50
2022-10-08T21:34:08.667Z,11.20
2022-10-08T21:36:39.351Z,13.50
2022-10-08T21:39:08.472Z,11.30
2022-10-08T21:41:37.302Z,13.40
2022-10-08T21:44:07.548Z,11.90
2022-10-08T21:46:38.542Z,9.40
2022-10-08T21:49:22.117Z,12.70
2022-10-08T21:51:49.852Z,12.20
2022-10-08T21:54:17.382Z,15.50
2022-10-08T21:56:45.561Z,12.80
2022-10-08T21:59:15.444Z,11.30
2022-10-08T22:01:48.595Z,14.80
2022-10-08T22:04:17.551Z,14.50
2022-10-08T22:06:48.188Z,15.20
2022-10-08T22:09:20.451Z,15.30
2022-10-08T22:11:49.029Z,10.50
2022-10-08T22:14:18.342Z,15.00
2022-10-08T22:16:46.547Z,12.10
2022-10-08T22:19:15.638Z,16.40
2022-10-08T22:21:43.791Z,12.90
2022-10-08T22:24:11.856Z,14.60
2022-10-08T22:26:43.328Z,12.50
2022-10-08T22:29:11.321Z,12.80
2022-10-08T22:31:39.334Z,12.10
2022-10-08T22:34:07.335Z,10.90
2022-10-08T22:36:39.812Z,13.80
2022-10-08T22:39:07.623Z,14.10
2022-10-08T22:41:35.819Z,12.40
2022-10-08T22:44:03.733Z,13.80
2022-10-08T22:46:36.211Z,11.00
2022-10-08T22:49:07.123Z,15.00
2022-10-08T22:51:35.064Z,11.80
2022-10-08T22:54:02.650Z,13.50
2022-10-08T22:56:31.587Z,11.30
2022-10-08T22:59:00.194Z,10.70
2022-10-08T23:01:29.449Z,14.50
2022-10-08T23:03:57.382Z,12.30
2022-10-08T23:06:35.104Z,13.50
2022-10-08T23:09:06.417Z,13.90
2022-10-08T23:11:34.672Z,10.30
2022-10-08T23:14:02.252Z,12.70
2022-10-08T23:16:31.918Z,12.50
2022-10-08T23:19:05.349Z,13.30
2022-10-08T23:21:33.091Z,12.30
2022-10-08T23:24:01.380Z,11.40
2022-10-08T23:26:29.250Z,12.10
2022-10-08T23:28:59.190Z,13.50
2022-10-08T23:31:31.052Z,11.20
2022-10-08T23:33:59.956Z,10.70
2022-10-08T23:36:30.354Z,15.00
2022-10-08T23:38:57.867Z,13.80
2022-10-08T23:41:26.916Z,13.50
2022-10-08T23:43:55.777Z,10.00
2022-10-08T23:46:26.120Z,12.90
2022-10-08T23:48:54.469Z,12.00
2022-10-08T23:51:23.314Z,12.30
2022-10-08T23:53:52.280Z,12.20
2022-10-08T23:56:21.321Z,11.90
2022-10-08T23:58:48.973Z,14.50
